Time;durP1;ratioP1;P1;durP2;ratioP2;P2;SDS_P1;SDS_P2;PMS_P1;PMS_P2;Temp;Humidity;BMP_temperature;BMP_pressure;BME280_temperature;BME280_humidity;BME280_pressure;Samples;Min_cycle;Max_cycle;Signal;HPM_P1;HPM_P2
2021/09/09 00:02:15;;;;;;;;;;;20.70;66.80;;;;;;5032192;28;1325;-67
2021/09/09 00:04:41;;;;;;;;;;;20.60;66.80;;;;;;5032457;28;1637;-67
2021/09/09 00:07:06;;;;;;;;;;;20.60;66.80;;;;;;5032034;28;1618;-67
2021/09/09 00:09:31;;;;;;;;;;;20.60;66.70;;;;;;5031660;28;1696;-67
2021/09/09 00:11:57;;;;;;;;;;;20.60;66.70;;;;;;5032261;28;1664;-67
2021/09/09 00:14:22;;;;;;;;;;;20.60;66.60;;;;;;5032357;28;1585;-67
2021/09/09 00:16:48;;;;;;;;;;;20.60;66.70;;;;;;5031889;28;1964;-67
2021/09/09 00:19:13;;;;;;;;;;;20.60;66.50;;;;;;5016623;28;1579;-67
2021/09/09 00:21:39;;;;;;;;;;;20.60;66.60;;;;;;5018354;28;1720;-67
2021/09/09 00:24:04;;;;;;;;;;;20.60;66.60;;;;;;5035550;28;1601;-69
2021/09/09 00:26:29;;;;;;;;;;;20.60;66.60;;;;;;5035675;28;1689;-69
2021/09/09 00:28:55;;;;;;;;;;;20.60;66.50;;;;;;5035758;28;1618;-68
2021/09/09 00:31:20;;;;;;;;;;;20.60;66.50;;;;;;5018098;28;1497;-69
2021/09/09 00:33:46;;;;;;;;;;;20.60;66.50;;;;;;5035570;28;1355;-69
2021/09/09 00:36:11;;;;;;;;;;;20.60;66.50;;;;;;5035410;28;1624;-69
2021/09/09 00:38:37;;;;;;;;;;;20.60;66.40;;;;;;5035444;28;1948;-69
2021/09/09 00:41:02;;;;;;;;;;;20.60;66.30;;;;;;5017930;28;1611;-68
2021/09/09 00:43:28;;;;;;;;;;;20.60;66.40;;;;;;5017752;28;1435;-69
2021/09/09 00:45:54;;;;;;;;;;;20.60;66.30;;;;;;5035104;28;1446;-68
2021/09/09 00:48:19;;;;;;;;;;;20.60;66.30;;;;;;5035262;28;1284;-70
2021/09/09 00:50:45;;;;;;;;;;;20.60;67.10;;;;;;5034950;28;1491;-68
2021/09/09 00:53:10;;;;;;;;;;;20.60;66.20;;;;;;5034667;28;1426;-68
2021/09/09 00:55:36;;;;;;;;;;;20.60;66.20;;;;;;5034272;28;1695;-68
2021/09/09 00:58:02;;;;;;;;;;;20.60;66.30;;;;;;5034846;28;1907;-67
2021/09/09 01:00:27;;;;;;;;;;;20.60;66.10;;;;;;5035067;28;1560;-67
2021/09/09 01:02:52;;;;;;;;;;;20.60;66.10;;;;;;5035201;28;1660;-67
2021/09/09 01:05:18;;;;;;;;;;;20.60;65.90;;;;;;5035072;28;1599;-67
2021/09/09 01:07:44;;;;;;;;;;;20.60;66.00;;;;;;5035081;28;1665;-67
2021/09/09 01:10:09;;;;;;;;;;;20.60;65.90;;;;;;5034910;28;1611;-67
2021/09/09 01:12:34;;;;;;;;;;;20.60;65.90;;;;;;5034842;28;1572;-67
2021/09/09 01:15:00;;;;;;;;;;;20.60;65.90;;;;;;5033985;28;1657;-67
2021/09/09 01:17:25;;;;;;;;;;;20.60;65.70;;;;;;5015764;28;1902;-67
2021/09/09 01:19:51;;;;;;;;;;;20.60;65.70;;;;;;5016753;28;1826;-67
2021/09/09 01:22:16;;;;;;;;;;;20.60;65.70;;;;;;5034479;28;1366;-67
2021/09/09 01:24:42;;;;;;;;;;;20.60;65.70;;;;;;5034734;28;1460;-67
2021/09/09 01:27:07;;;;;;;;;;;20.60;65.60;;;;;;5034440;28;1584;-67
2021/09/09 01:29:34;;;;;;;;;;;20.60;65.60;;;;;;5033990;28;1594;-67
2021/09/09 01:31:59;;;;;;;;;;;20.60;65.40;;;;;;5016636;28;1624;-67
2021/09/09 01:34:25;;;;;;;;;;;20.60;65.50;;;;;;5034202;28;1451;-67
2021/09/09 01:36:50;;;;;;;;;;;20.50;65.40;;;;;;5032897;28;1948;-67
2021/09/09 01:39:16;;;;;;;;;;;20.50;65.50;;;;;;5016668;28;1635;-68
2021/09/09 01:41:41;;;;;;;;;;;20.50;65.40;;;;;;5034315;28;1387;-67
2021/09/09 01:44:07;;;;;;;;;;;20.50;65.20;;;;;;5034248;28;1396;-67
2021/09/09 01:46:32;;;;;;;;;;;20.50;65.00;;;;;;5032835;28;1104;-67
2021/09/09 01:48:58;;;;;;;;;;;20.50;65.10;;;;;;5033712;28;1351;-67
2021/09/09 01:51:24;;;;;;;;;;;20.50;65.20;;;;;;5016783;28;1937;-66
2021/09/09 01:53:50;;;;;;;;;;;20.50;65.30;;;;;;5019512;28;1241;-67
2021/09/09 01:56:15;;;;;;;;;;;20.50;65.00;;;;;;5028052;28;1482;-67
2021/09/09 01:58:41;;;;;;;;;;;20.50;65.10;;;;;;5034067;28;1958;-67
2021/09/09 02:01:07;;;;;;;;;;;20.50;65.10;;;;;;5034278;28;1268;-66
2021/09/09 02:03:33;;;;;;;;;;;20.50;64.90;;;;;;5034038;28;1359;-66
2021/09/09 02:05:58;;;;;;;;;;;20.50;64.90;;;;;;5033829;28;1561;-67
2021/09/09 02:08:24;;;;;;;;;;;20.50;64.80;;;;;;5034025;28;1667;-66
2021/09/09 02:10:49;;;;;;;;;;;20.50;64.80;;;;;;5034036;28;1332;-67
2021/09/09 02:13:15;;;;;;;;;;;20.50;64.70;;;;;;5033806;28;1624;-66
2021/09/09 02:15:41;;;;;;;;;;;20.50;64.70;;;;;;5015956;28;1653;-66
2021/09/09 02:18:06;;;;;;;;;;;20.50;64.70;;;;;;5033902;28;1906;-67
2021/09/09 02:20:32;;;;;;;;;;;20.50;64.80;;;;;;5033744;28;1616;-67
2021/09/09 02:22:57;;;;;;;;;;;20.50;64.50;;;;;;5033566;28;1509;-66
2021/09/09 02:25:23;;;;;;;;;;;20.50;64.60;;;;;;5033696;28;1368;-67
2021/09/09 02:27:48;;;;;;;;;;;20.50;64.50;;;;;;5033482;28;1695;-66
2021/09/09 02:30:13;;;;;;;;;;;20.50;64.30;;;;;;5030420;28;1644;-66
2021/09/09 02:32:39;;;;;;;;;;;20.50;65.50;;;;;;5024292;28;1330;-66
2021/09/09 02:35:05;;;;;;;;;;;20.50;66.20;;;;;;5026539;28;1292;-66
2021/09/09 02:37:30;;;;;;;;;;;20.50;66.60;;;;;;5023759;28;1969;-66
2021/09/09 02:39:55;;;;;;;;;;;20.50;66.10;;;;;;5026559;28;1242;-67
2021/09/09 02:42:21;;;;;;;;;;;20.50;66.30;;;;;;5006211;28;1339;-66
2021/09/09 02:44:46;;;;;;;;;;;20.50;66.80;;;;;;5025047;28;1261;-66
2021/09/09 02:47:12;;;;;;;;;;;20.50;66.20;;;;;;4996938;28;1274;-67
2021/09/09 02:49:37;;;;;;;;;;;20.60;66.80;;;;;;5020395;28;1674;-67
2021/09/09 02:52:03;;;;;;;;;;;20.50;66.20;;;;;;5033161;28;1662;-66
2021/09/09 02:54:28;;;;;;;;;;;20.50;66.40;;;;;;5033130;28;1278;-67
2021/09/09 02:56:54;;;;;;;;;;;20.50;66.00;;;;;;5014880;28;1964;-66
2021/09/09 02:59:19;;;;;;;;;;;20.50;65.90;;;;;;5033086;28;1280;-67
2021/09/09 03:01:44;;;;;;;;;;;20.50;66.70;;;;;;5032902;28;1357;-67
2021/09/09 03:04:10;;;;;;;;;;;20.50;65.90;;;;;;5032981;28;1579;-66
2021/09/09 03:06:35;;;;;;;;;;;20.50;65.70;;;;;;5032553;28;1139;-67
2021/09/09 03:09:01;;;;;;;;;;;20.50;65.60;;;;;;5033308;28;1399;-67
2021/09/09 03:11:26;;;;;;;;;;;20.50;65.70;;;;;;5033333;28;1155;-67
2021/09/09 03:13:51;;;;;;;;;;;20.50;66.00;;;;;;5032762;28;1310;-67
2021/09/09 03:16:17;;;;;;;;;;;20.50;66.00;;;;;;5032495;28;1334;-67
2021/09/09 03:18:43;;;;;;;;;;;20.50;65.90;;;;;;5032926;28;1938;-66
2021/09/09 03:21:08;;;;;;;;;;;20.50;66.20;;;;;;5033269;28;1076;-67
2021/09/09 03:23:33;;;;;;;;;;;20.50;66.40;;;;;;5028615;23;3545;-74
2021/09/09 03:25:59;;;;;;;;;;;20.50;65.80;;;;;;4995730;28;1033;-74
2021/09/09 03:28:24;;;;;;;;;;;20.50;65.10;;;;;;4993759;28;1121;-75
2021/09/09 03:30:50;;;;;;;;;;;20.50;65.60;;;;;;5011767;28;1134;-75
2021/09/09 03:33:15;;;;;;;;;;;20.50;66.40;;;;;;5011841;28;1327;-74
2021/09/09 03:35:40;;;;;;;;;;;20.50;65.40;;;;;;5011554;28;1024;-75
2021/09/09 03:38:08;;;;;;;;;;;20.50;65.90;;;;;;5011715;28;1978;-74
2021/09/09 03:40:33;;;;;;;;;;;20.50;65.50;;;;;;5012871;28;1096;-75
2021/09/09 03:42:59;;;;;;;;;;;20.50;65.50;;;;;;5012117;28;1317;-75
2021/09/09 03:45:24;;;;;;;;;;;20.50;64.90;;;;;;5012712;28;1099;-75
2021/09/09 03:47:50;;;;;;;;;;;20.50;64.90;;;;;;5011458;28;1314;-75
2021/09/09 03:50:15;;;;;;;;;;;20.50;65.70;;;;;;4999594;28;1173;-75
2021/09/09 03:52:41;;;;;;;;;;;20.50;64.70;;;;;;4997336;28;1279;-74
2021/09/09 03:55:06;;;;;;;;;;;20.50;64.90;;;;;;5015191;28;1077;-75
2021/09/09 03:57:32;;;;;;;;;;;20.50;65.10;;;;;;5016249;28;1906;-75
2021/09/09 03:59:57;;;;;;;;;;;20.50;65.30;;;;;;5016430;28;1053;-75
2021/09/09 04:02:23;;;;;;;;;;;20.50;64.90;;;;;;5016424;28;1335;-74
2021/09/09 04:04:48;;;;;;;;;;;20.60;65.50;;;;;;5016081;28;1223;-74
2021/09/09 04:07:13;;;;;;;;;;;20.60;65.50;;;;;;5014284;28;1382;-74
2021/09/09 04:09:39;;;;;;;;;;;20.60;65.00;;;;;;5014322;28;1274;-74
2021/09/09 04:12:05;;;;;;;;;;;20.60;64.60;;;;;;5015708;28;1438;-74
2021/09/09 04:14:30;;;;;;;;;;;20.60;64.70;;;;;;5013508;28;1228;-74
2021/09/09 04:16:56;;;;;;;;;;;20.60;64.30;;;;;;5013916;28;1902;-75
2021/09/09 04:19:23;;;;;;;;;;;20.60;64.10;;;;;;5016380;28;1104;-75
2021/09/09 04:21:49;;;;;;;;;;;20.60;64.30;;;;;;5016210;28;1300;-74
2021/09/09 04:24:14;;;;;;;;;;;20.60;64.30;;;;;;5016137;28;1204;-74
2021/09/09 04:26:40;;;;;;;;;;;20.60;64.70;;;;;;5015656;28;1079;-74
2021/09/09 04:29:05;;;;;;;;;;;20.60;64.10;;;;;;5014790;28;1084;-74
2021/09/09 04:31:31;;;;;;;;;;;20.60;64.40;;;;;;4998621;28;1175;-74
2021/09/09 04:33:56;;;;;;;;;;;20.60;63.60;;;;;;5014733;28;1605;-74
2021/09/09 04:36:22;;;;;;;;;;;20.60;63.80;;;;;;5014495;28;1132;-75
2021/09/09 04:38:47;;;;;;;;;;;20.60;63.70;;;;;;5014628;28;1898;-74
2021/09/09 04:41:14;;;;;;;;;;;20.60;64.10;;;;;;5015772;28;1124;-74
2021/09/09 04:43:40;;;;;;;;;;;20.60;63.40;;;;;;5014404;28;1277;-74
2021/09/09 04:46:05;;;;;;;;;;;20.60;63.70;;;;;;5014202;28;1199;-74
2021/09/09 04:48:31;;;;;;;;;;;20.60;63.80;;;;;;5015666;28;1135;-74
2021/09/09 04:50:56;;;;;;;;;;;20.60;63.50;;;;;;5015627;28;1226;-75
2021/09/09 04:53:22;;;;;;;;;;;20.60;64.10;;;;;;5014570;28;1252;-75
2021/09/09 04:55:47;;;;;;;;;;;20.60;63.90;;;;;;5014013;28;1304;-74
2021/09/09 04:58:12;;;;;;;;;;;20.60;63.40;;;;;;5014092;28;1902;-74
2021/09/09 05:00:38;;;;;;;;;;;20.60;64.10;;;;;;5015595;28;1116;-75
2021/09/09 05:03:03;;;;;;;;;;;20.60;63.40;;;;;;5014142;28;1223;-75
2021/09/09 05:05:29;;;;;;;;;;;20.60;63.50;;;;;;5013958;28;1136;-74
2021/09/09 05:07:54;;;;;;;;;;;20.60;63.20;;;;;;5015389;28;1045;-74
2021/09/09 05:10:20;;;;;;;;;;;20.60;63.20;;;;;;5015596;28;1178;-74
2021/09/09 05:12:45;;;;;;;;;;;20.60;63.20;;;;;;5015031;28;1351;-74
2021/09/09 05:15:10;;;;;;;;;;;20.60;63.30;;;;;;4997790;28;1176;-74
2021/09/09 05:17:36;;;;;;;;;;;20.60;63.40;;;;;;5015114;28;1915;-74
2021/09/09 05:20:01;;;;;;;;;;;20.60;63.30;;;;;;4997544;28;1368;-75
2021/09/09 05:22:27;;;;;;;;;;;20.60;63.00;;;;;;5014102;28;1260;-75
2021/09/09 05:24:52;;;;;;;;;;;20.60;63.30;;;;;;5013689;28;1287;-74
2021/09/09 05:27:18;;;;;;;;;;;20.60;64.20;;;;;;5014897;28;1375;-75
2021/09/09 05:29:43;;;;;;;;;;;20.60;64.40;;;;;;5014920;28;1266;-75
2021/09/09 05:32:09;;;;;;;;;;;20.60;63.90;;;;;;5015190;28;1277;-75
2021/09/09 05:34:34;;;;;;;;;;;20.60;64.20;;;;;;5014886;28;1699;-75
2021/09/09 05:36:59;;;;;;;;;;;20.60;63.10;;;;;;5014777;28;1950;-75
2021/09/09 05:39:25;;;;;;;;;;;20.60;63.70;;;;;;5014690;28;1311;-74
2021/09/09 05:41:50;;;;;;;;;;;20.60;63.70;;;;;;5013502;28;1085;-75
2021/09/09 05:44:16;;;;;;;;;;;20.60;63.70;;;;;;5004601;28;1812;-72
2021/09/09 05:46:41;;;;;;;;;;;20.60;63.10;;;;;;5002900;28;1904;-72
2021/09/09 05:49:07;;;;;;;;;;;20.60;63.70;;;;;;5020837;28;1189;-72
2021/09/09 05:51:32;;;;;;;;;;;20.60;64.00;;;;;;5022788;28;1076;-71
2021/09/09 05:53:59;;;;;;;;;;;20.60;63.70;;;;;;5012038;28;1335;-73
2021/09/09 05:56:24;;;;;;;;;;;20.60;63.70;;;;;;5013170;28;1436;-71
2021/09/09 05:58:51;;;;;;;;;;;20.60;63.10;;;;;;5011885;28;1956;-71
2021/09/09 06:01:17;;;;;;;;;;;20.60;63.20;;;;;;5014225;28;1060;-71
2021/09/09 06:03:44;;;;;;;;;;;20.60;63.70;;;;;;5014005;28;1362;-71
2021/09/09 06:06:09;;;;;;;;;;;20.60;63.90;;;;;;5014006;28;1119;-71
2021/09/09 06:08:35;;;;;;;;;;;20.60;63.40;;;;;;5014108;28;1318;-71
2021/09/09 06:11:00;;;;;;;;;;;20.60;63.30;;;;;;5012828;28;1302;-71
2021/09/09 06:13:26;;;;;;;;;;;20.60;62.60;;;;;;5013867;28;1346;-71
2021/09/09 06:15:51;;;;;;;;;;;20.60;63.00;;;;;;5013434;28;1088;-71
2021/09/09 06:18:16;;;;;;;;;;;20.60;63.10;;;;;;5013826;28;1906;-71
2021/09/09 06:20:42;;;;;;;;;;;20.50;63.10;;;;;;5014029;28;1013;-71
2021/09/09 06:23:07;;;;;;;;;;;20.50;63.20;;;;;;5012498;28;1488;-71
2021/09/09 06:25:33;;;;;;;;;;;20.60;63.10;;;;;;5012538;28;1187;-71
2021/09/09 06:27:58;;;;;;;;;;;20.50;63.00;;;;;;4994646;28;1140;-71
2021/09/09 06:30:24;;;;;;;;;;;20.60;63.00;;;;;;5012576;28;1064;-71
2021/09/09 06:32:49;;;;;;;;;;;20.50;62.60;;;;;;5013719;28;1276;-71
2021/09/09 06:35:14;;;;;;;;;;;20.50;62.50;;;;;;5013643;28;1061;-71
2021/09/09 06:37:40;;;;;;;;;;;20.60;63.00;;;;;;5013444;28;2023;-72
2021/09/09 06:40:06;;;;;;;;;;;20.50;63.00;;;;;;5012438;28;1072;-71
2021/09/09 06:42:31;;;;;;;;;;;20.50;63.10;;;;;;5012101;28;1462;-71
2021/09/09 06:44:57;;;;;;;;;;;20.50;63.10;;;;;;5013497;28;1320;-71
2021/09/09 06:47:22;;;;;;;;;;;20.50;62.90;;;;;;5013386;28;1127;-71
2021/09/09 06:49:48;;;;;;;;;;;20.50;63.10;;;;;;5013857;28;1175;-71
2021/09/09 06:52:13;;;;;;;;;;;20.50;63.20;;;;;;5013433;28;1072;-71
2021/09/09 06:54:39;;;;;;;;;;;20.50;63.00;;;;;;5013285;28;1323;-71
2021/09/09 06:57:04;;;;;;;;;;;20.50;63.20;;;;;;5011603;28;1953;-71
2021/09/09 06:59:29;;;;;;;;;;;20.50;63.10;;;;;;5012117;28;1136;-71
2021/09/09 07:01:55;;;;;;;;;;;20.50;63.10;;;;;;5013378;28;1346;-71
2021/09/09 07:04:20;;;;;;;;;;;20.50;62.90;;;;;;5013234;28;1331;-71
2021/09/09 07:06:46;;;;;;;;;;;20.50;63.00;;;;;;5013022;28;1117;-72
2021/09/09 07:09:11;;;;;;;;;;;20.50;63.00;;;;;;5012235;28;1386;-71
2021/09/09 07:11:37;;;;;;;;;;;20.50;62.90;;;;;;5013068;28;1335;-70
2021/09/09 07:14:02;;;;;;;;;;;20.50;63.00;;;;;;5013251;28;1308;-70
2021/09/09 07:16:27;;;;;;;;;;;20.50;63.10;;;;;;5011622;28;1195;-72
2021/09/09 07:18:53;;;;;;;;;;;20.50;63.20;;;;;;5012021;28;1933;-71
2021/09/09 07:21:18;;;;;;;;;;;20.50;63.90;;;;;;5012929;28;1089;-72
2021/09/09 07:23:44;;;;;;;;;;;20.50;63.20;;;;;;5011821;28;1702;-71
2021/09/09 07:26:10;;;;;;;;;;;20.50;63.40;;;;;;5012474;28;1112;-71
2021/09/09 07:28:35;;;;;;;;;;;20.50;63.30;;;;;;5014624;28;1324;-71
2021/09/09 07:31:00;;;;;;;;;;;20.50;63.30;;;;;;5017099;28;1064;-71
2021/09/09 07:33:26;;;;;;;;;;;20.50;63.00;;;;;;5017161;28;1370;-71
2021/09/09 07:35:51;;;;;;;;;;;20.50;63.20;;;;;;5016588;28;1060;-71
2021/09/09 07:38:17;;;;;;;;;;;20.50;63.10;;;;;;5015719;28;1902;-72
2021/09/09 07:40:42;;;;;;;;;;;20.50;63.10;;;;;;5016705;28;1132;-71
2021/09/09 07:43:09;;;;;;;;;;;20.50;62.90;;;;;;5016858;28;1290;-71
2021/09/09 07:45:34;;;;;;;;;;;20.50;63.10;;;;;;5016605;28;1148;-72
2021/09/09 07:48:00;;;;;;;;;;;20.50;62.90;;;;;;5016814;28;1148;-71
2021/09/09 07:50:25;;;;;;;;;;;20.50;62.90;;;;;;5003229;28;1253;-71
2021/09/09 07:52:51;;;;;;;;;;;20.50;63.00;;;;;;5016831;28;1565;-70
2021/09/09 07:55:16;;;;;;;;;;;20.50;62.80;;;;;;5013250;28;1904;-71
2021/09/09 07:57:42;;;;;;;;;;;20.50;62.40;;;;;;5016357;28;1973;-71
2021/09/09 08:00:08;;;;;;;;;;;20.50;61.70;;;;;;5026647;28;1104;-72
2021/09/09 08:02:33;;;;;;;;;;;20.50;61.60;;;;;;5016443;28;1265;-72
2021/09/09 08:04:59;;;;;;;;;;;20.50;60.80;;;;;;5016364;28;1092;-71
2021/09/09 08:07:24;;;;;;;;;;;20.50;60.90;;;;;;5016156;28;1128;-72
2021/09/09 08:09:49;;;;;;;;;;;20.50;60.90;;;;;;5016378;28;1203;-72
2021/09/09 08:12:15;;;;;;;;;;;20.50;61.40;;;;;;4998669;28;1153;-72
2021/09/09 08:14:40;;;;;;;;;;;20.50;61.60;;;;;;5015284;28;1352;-72
2021/09/09 08:17:06;;;;;;;;;;;20.50;61.80;;;;;;5015976;28;1906;-72
2021/09/09 08:19:31;;;;;;;;;;;20.50;62.00;;;;;;5016203;28;1297;-71
2021/09/09 08:21:57;;;;;;;;;;;20.50;61.60;;;;;;5016229;28;1326;-72
2021/09/09 08:24:22;;;;;;;;;;;20.50;61.40;;;;;;5015865;28;1473;-72
2021/09/09 08:26:47;;;;;;;;;;;20.50;61.40;;;;;;5015735;28;1311;-72
2021/09/09 08:29:13;;;;;;;;;;;20.50;61.10;;;;;;5016165;28;1320;-72
2021/09/09 08:31:38;;;;;;;;;;;20.50;61.10;;;;;;5014674;28;1155;-71
2021/09/09 08:34:05;;;;;;;;;;;20.50;61.20;;;;;;5015896;28;1308;-71
2021/09/09 08:36:31;;;;;;;;;;;20.50;61.40;;;;;;5014417;28;1341;-71
2021/09/09 08:38:56;;;;;;;;;;;20.50;62.30;;;;;;5015447;28;1927;-71
2021/09/09 08:41:21;;;;;;;;;;;20.50;61.70;;;;;;5014222;28;1164;-70
2021/09/09 08:43:47;;;;;;;;;;;20.50;61.10;;;;;;5015852;28;1369;-70
2021/09/09 08:46:16;;;;;;;;;;;20.50;60.80;;;;;;4996766;28;1789;-70
2021/09/09 08:48:44;;;;;;;;;;;20.60;61.50;;;;;;5020406;28;963;-70
2021/09/09 08:51:11;;;;;;;;;;;20.60;61.00;;;;;;5022415;28;1198;-70
2021/09/09 08:53:36;;;;;;;;;;;20.60;60.20;;;;;;5014597;28;1351;-71
2021/09/09 08:56:02;;;;;;;;;;;20.60;59.90;;;;;;5013997;28;1164;-71
2021/09/09 08:58:27;;;;;;;;;;;20.60;60.50;;;;;;5013958;28;1981;-71
2021/09/09 09:01:13;;;;;;;;;;;20.60;61.60;;;;;;5015450;28;1159;-71
2021/09/09 09:03:43;;;;;;;;;;;20.60;61.80;;;;;;5014084;28;1220;-71
2021/09/09 09:06:27;;;;;;;;;;;20.60;60.30;;;;;;5015072;28;1159;-71
2021/09/09 09:08:53;;;;;;;;;;;20.60;59.10;;;;;;5015429;28;1136;-71
2021/09/09 09:11:25;;;;;;;;;;;20.60;59.30;;;;;;5014104;28;1343;-71
2021/09/09 09:13:51;;;;;;;;;;;20.60;59.50;;;;;;5015271;28;1387;-70
2021/09/09 09:16:16;;;;;;;;;;;20.60;59.70;;;;;;5014159;28;1201;-70
2021/09/09 09:18:42;;;;;;;;;;;20.60;60.10;;;;;;5013776;28;1891;-70
2021/09/09 09:21:07;;;;;;;;;;;20.60;60.60;;;;;;5015270;28;1342;-70
2021/09/09 09:23:32;;;;;;;;;;;20.70;61.20;;;;;;5014110;28;1403;-72
2021/09/09 09:25:59;;;;;;;;;;;20.70;61.10;;;;;;5014873;28;1112;-71
2021/09/09 09:28:36;;;;;;;;;;;20.70;62.10;;;;;;5015092;28;1132;-72
2021/09/09 09:31:09;;;;;;;;;;;20.70;62.80;;;;;;5014958;28;1304;-72
2021/09/09 09:33:35;;;;;;;;;;;20.70;63.10;;;;;;4993880;28;1427;-71
2021/09/09 09:36:13;;;;;;;;;;;20.70;63.20;;;;;;5007595;28;1191;-72
2021/09/09 09:38:39;;;;;;;;;;;20.70;62.60;;;;;;5013567;28;1927;-71
2021/09/09 09:41:04;;;;;;;;;;;20.80;62.70;;;;;;5014737;28;1300;-71
2021/09/09 09:43:30;;;;;;;;;;;20.70;63.80;;;;;;5014589;28;1299;-72
2021/09/09 09:45:56;;;;;;;;;;;20.80;63.50;;;;;;5014172;28;1375;-71
2021/09/09 09:48:26;;;;;;;;;;;20.70;63.30;;;;;;5014698;28;1072;-72
2021/09/09 09:50:51;;;;;;;;;;;20.80;64.00;;;;;;5012486;28;1286;-72
2021/09/09 09:53:17;;;;;;;;;;;20.80;64.10;;;;;;5014588;28;1284;-72
2021/09/09 09:55:42;;;;;;;;;;;20.80;64.10;;;;;;4996541;28;1421;-71
2021/09/09 09:58:08;;;;;;;;;;;20.80;63.60;;;;;;5014226;28;1898;-72
2021/09/09 10:00:33;;;;;;;;;;;20.80;63.20;;;;;;5014263;28;1244;-72
2021/09/09 10:02:59;;;;;;;;;;;20.80;64.00;;;;;;5014433;28;1284;-72
2021/09/09 10:05:24;;;;;;;;;;;20.80;64.60;;;;;;5014287;28;1287;-71
2021/09/09 10:07:49;;;;;;;;;;;20.80;64.40;;;;;;5013981;28;1288;-72
2021/09/09 10:10:15;;;;;;;;;;;20.80;64.30;;;;;;5012939;28;1564;-72
2021/09/09 10:12:43;;;;;;;;;;;20.80;64.10;;;;;;5012892;28;1363;-72
2021/09/09 10:15:12;;;;;;;;;;;20.80;64.20;;;;;;5008702;28;1780;-71
2021/09/09 10:17:37;;;;;;;;;;;20.80;64.30;;;;;;5005883;28;1898;-72
2021/09/09 10:20:23;;;;;;;;;;;20.80;63.90;;;;;;5010257;28;1384;-71
2021/09/09 10:23:04;;;;;;;;;;;20.90;64.10;;;;;;5013641;28;1427;-72
2021/09/09 10:25:43;;;;;;;;;;;20.90;64.40;;;;;;4995159;28;1255;-72
2021/09/09 10:28:27;;;;;;;;;;;20.80;64.20;;;;;;5008895;28;1144;-71
2021/09/09 10:31:02;;;;;;;;;;;20.90;64.20;;;;;;5013899;28;1357;-71
2021/09/09 10:33:28;;;;;;;;;;;20.90;64.90;;;;;;5012436;28;1460;-72
2021/09/09 10:35:53;;;;;;;;;;;20.90;63.70;;;;;;5013280;28;1361;-72
2021/09/09 10:38:23;;;;;;;;;;;20.90;63.40;;;;;;5013862;28;1914;-71
2021/09/09 10:40:48;;;;;;;;;;;20.90;63.40;;;;;;5012388;28;1347;-71
2021/09/09 10:43:14;;;;;;;;;;;20.90;64.30;;;;;;5012533;28;1331;-72
2021/09/09 10:45:43;;;;;;;;;;;20.90;64.30;;;;;;5013313;28;1458;-71
2021/09/09 10:48:09;;;;;;;;;;;20.90;64.30;;;;;;5012376;28;1328;-71
2021/09/09 10:50:35;;;;;;;;;;;20.90;64.30;;;;;;5013434;28;1224;-72
2021/09/09 10:53:04;;;;;;;;;;;21.00;63.30;;;;;;5012636;28;2063;-71
2021/09/09 10:55:29;;;;;;;;;;;20.90;64.20;;;;;;4982074;28;1874;-72
2021/09/09 10:58:10;;;;;;;;;;;21.00;64.70;;;;;;5023320;28;1898;-72
2021/09/09 11:00:51;;;;;;;;;;;21.00;64.30;;;;;;5015819;28;1252;-71
2021/09/09 11:03:35;;;;;;;;;;;21.00;64.30;;;;;;5013239;28;1391;-72
2021/09/09 11:06:01;;;;;;;;;;;21.00;64.30;;;;;;5013092;28;1475;-72
2021/09/09 11:08:27;;;;;;;;;;;21.00;64.50;;;;;;5013322;28;1022;-72
2021/09/09 11:10:52;;;;;;;;;;;21.10;64.10;;;;;;5011953;28;1275;-72
2021/09/09 11:13:25;;;;;;;;;;;21.00;64.80;;;;;;5013089;28;1690;-71
2021/09/09 11:15:50;;;;;;;;;;;21.00;64.70;;;;;;5013008;28;1048;-72
2021/09/09 11:18:28;;;;;;;;;;;21.00;64.60;;;;;;5013203;28;1965;-71
2021/09/09 11:21:01;;;;;;;;;;;21.00;64.90;;;;;;5013132;28;1449;-72
2021/09/09 11:23:26;;;;;;;;;;;21.00;64.90;;;;;;5012944;28;1295;-70
2021/09/09 11:25:51;;;;;;;;;;;21.00;65.10;;;;;;5012544;28;1385;-72
2021/09/09 11:28:19;;;;;;;;;;;21.00;65.40;;;;;;5011980;28;1112;-71
2021/09/09 11:30:45;;;;;;;;;;;21.00;64.80;;;;;;5013197;28;1288;-70
2021/09/09 11:33:13;;;;;;;;;;;21.10;64.90;;;;;;5011771;28;1280;-71
2021/09/09 11:35:38;;;;;;;;;;;21.10;65.40;;;;;;5012742;28;1320;-72
2021/09/09 11:38:04;;;;;;;;;;;21.10;65.10;;;;;;5013276;28;1899;-72
2021/09/09 11:40:29;;;;;;;;;;;21.10;64.80;;;;;;5013038;28;1091;-72
2021/09/09 11:43:01;;;;;;;;;;;21.10;64.70;;;;;;5012933;28;1336;-71
2021/09/09 11:45:26;;;;;;;;;;;21.10;64.50;;;;;;5012866;28;1068;-71
2021/09/09 11:48:00;;;;;;;;;;;21.10;64.70;;;;;;5012669;28;1319;-72
2021/09/09 11:50:25;;;;;;;;;;;21.10;64.70;;;;;;5011715;28;1262;-72
2021/09/09 11:53:01;;;;;;;;;;;21.10;64.70;;;;;;5011474;28;1317;-71
2021/09/09 11:55:26;;;;;;;;;;;21.10;64.10;;;;;;5012635;28;1304;-71
2021/09/09 11:57:52;;;;;;;;;;;21.10;65.00;;;;;;5010592;28;1964;-71
2021/09/09 12:00:17;;;;;;;;;;;21.10;64.50;;;;;;5012725;28;1016;-71
2021/09/09 12:02:44;;;;;;;;;;;21.10;64.40;;;;;;5023029;28;1255;-72
2021/09/09 12:05:09;;;;;;;;;;;21.10;64.40;;;;;;5016588;28;1217;-74
2021/09/09 12:07:35;;;;;;;;;;;21.10;64.00;;;;;;4995008;28;1355;-73
2021/09/09 12:10:00;;;;;;;;;;;21.10;64.00;;;;;;5011338;28;1191;-74
2021/09/09 12:12:28;;;;;;;;;;;21.10;64.20;;;;;;5012378;28;1036;-74
2021/09/09 12:14:56;;;;;;;;;;;21.10;63.80;;;;;;5012202;28;1378;-75
2021/09/09 12:17:22;;;;;;;;;;;21.10;63.70;;;;;;5014869;28;1944;-74
2021/09/09 12:19:54;;;;;;;;;;;21.10;64.10;;;;;;5014806;28;1098;-72
2021/09/09 12:22:20;;;;;;;;;;;21.10;64.50;;;;;;5016439;28;1138;-76
2021/09/09 12:24:46;;;;;;;;;;;21.10;64.60;;;;;;5014607;28;1194;-76
2021/09/09 12:27:15;;;;;;;;;;;21.10;64.70;;;;;;5016115;28;1245;-74
2021/09/09 12:29:42;;;;;;;;;;;21.10;64.50;;;;;;5014735;28;1108;-74
2021/09/09 12:32:27;;;;;;;;;;;21.10;64.20;;;;;;5016145;28;1072;-74
2021/09/09 12:34:52;;;;;;;;;;;21.10;64.00;;;;;;5015901;28;1236;-73
2021/09/09 12:37:18;;;;;;;;;;;21.10;65.30;;;;;;5015738;28;1902;-74
2021/09/09 12:39:43;;;;;;;;;;;21.10;63.70;;;;;;5014700;28;1326;-73
2021/09/09 12:42:09;;;;;;;;;;;21.20;64.10;;;;;;5014985;28;1085;-73
2021/09/09 12:44:35;;;;;;;;;;;21.20;64.70;;;;;;5015800;28;1359;-74
2021/09/09 12:47:12;;;;;;;;;;;21.20;64.90;;;;;;5014212;28;1065;-74
2021/09/09 12:49:38;;;;;;;;;;;21.20;64.80;;;;;;4991424;28;1342;-74
2021/09/09 12:52:05;;;;;;;;;;;21.10;65.00;;;;;;5009582;28;1337;-74
2021/09/09 12:54:30;;;;;;;;;;;21.20;64.50;;;;;;5014509;28;1202;-75
2021/09/09 12:56:56;;;;;;;;;;;21.20;64.50;;;;;;5015080;28;1963;-74
2021/09/09 12:59:23;;;;;;;;;;;21.20;64.90;;;;;;5014437;28;1292;-74
2021/09/09 13:01:49;;;;;;;;;;;21.20;65.20;;;;;;5014167;28;1582;-74
2021/09/09 13:04:17;;;;;;;;;;;21.20;64.60;;;;;;5015502;28;1257;-73
2021/09/09 13:06:42;;;;;;;;;;;21.20;64.10;;;;;;5015188;28;1261;-74
2021/09/09 13:09:08;;;;;;;;;;;21.20;63.80;;;;;;5015688;28;1327;-72
2021/09/09 13:11:33;;;;;;;;;;;21.20;63.60;;;;;;5015339;28;1052;-74
2021/09/09 13:13:59;;;;;;;;;;;21.20;63.40;;;;;;5014111;28;1418;-74
2021/09/09 13:16:24;;;;;;;;;;;21.20;63.50;;;;;;5014913;28;1237;-74
2021/09/09 13:18:50;;;;;;;;;;;21.20;64.20;;;;;;5014072;28;1898;-74
2021/09/09 13:21:17;;;;;;;;;;;21.20;63.50;;;;;;5015219;28;1391;-74
2021/09/09 13:23:43;;;;;;;;;;;21.30;63.50;;;;;;5015133;28;1724;-73
2021/09/09 13:26:09;;;;;;;;;;;21.30;62.40;;;;;;5012435;28;1101;-73
2021/09/09 13:28:39;;;;;;;;;;;21.30;62.70;;;;;;5015023;28;1341;-74
2021/09/09 13:31:04;;;;;;;;;;;21.30;62.70;;;;;;5013877;28;1150;-74
2021/09/09 13:33:30;;;;;;;;;;;21.30;62.20;;;;;;5014031;28;1363;-74
2021/09/09 13:35:56;;;;;;;;;;;21.30;62.20;;;;;;5014703;28;1131;-73
2021/09/09 13:38:21;;;;;;;;;;;21.30;62.00;;;;;;5013992;28;1969;-74
2021/09/09 13:40:47;;;;;;;;;;;21.30;62.50;;;;;;5014793;28;1260;-74
2021/09/09 13:43:12;;;;;;;;;;;21.30;62.90;;;;;;5014574;28;1362;-74
2021/09/09 13:45:38;;;;;;;;;;;21.30;62.70;;;;;;5013326;28;1371;-74
2021/09/09 13:48:04;;;;;;;;;;;21.30;62.30;;;;;;5014700;28;1252;-74
2021/09/09 13:50:29;;;;;;;;;;;21.30;62.90;;;;;;5014611;28;1238;-74
2021/09/09 13:52:55;;;;;;;;;;;21.30;62.70;;;;;;5014660;28;1410;-74
2021/09/09 13:55:20;;;;;;;;;;;21.40;63.10;;;;;;5014672;28;1089;-74
2021/09/09 13:57:46;;;;;;;;;;;21.40;62.90;;;;;;5012995;28;1902;-73
2021/09/09 14:00:12;;;;;;;;;;;21.40;63.00;;;;;;5014440;28;1336;-75
2021/09/09 14:02:37;;;;;;;;;;;21.30;63.20;;;;;;4997049;28;1275;-77
2021/09/09 14:05:06;;;;;;;;;;;21.30;63.50;;;;;;5013026;28;1454;-76
2021/09/09 14:07:31;;;;;;;;;;;21.30;63.90;;;;;;5014168;28;1288;-75
2021/09/09 14:09:56;;;;;;;;;;;21.30;64.60;;;;;;5012972;28;1177;-75
2021/09/09 14:12:22;;;;;;;;;;;21.30;63.60;;;;;;5014366;28;1296;-76
2021/09/09 14:14:47;;;;;;;;;;;21.30;63.00;;;;;;5014403;28;1405;-74
2021/09/09 14:17:13;;;;;;;;;;;21.30;63.50;;;;;;5013923;28;1902;-74
2021/09/09 14:19:39;;;;;;;;;;;21.30;63.40;;;;;;5014267;28;1303;-75
2021/09/09 14:22:04;;;;;;;;;;;21.30;62.00;;;;;;5012822;28;1410;-75
2021/09/09 14:24:29;;;;;;;;;;;21.40;62.00;;;;;;5013887;28;1192;-74
2021/09/09 14:26:55;;;;;;;;;;;21.40;62.30;;;;;;5013560;28;1127;-73